sensor_id;sensor_type;location;lat;lon;timestamp;P1;durP1;ratioP1;P2;durP2;ratioP2
64597;SDS011;51004;54.692;9.332;2023-08-12T00:01:51;4.90;;;3.78;;
64597;SDS011;51004;54.692;9.332;2023-08-12T00:04:16;3.83;;;3.42;;
64597;SDS011;51004;54.692;9.332;2023-08-12T00:06:43;5.75;;;4.28;;
64597;SDS011;51004;54.692;9.332;2023-08-12T00:09:09;7.63;;;4.45;;
64597;SDS011;51004;54.692;9.332;2023-08-12T00:11:36;5.05;;;4.53;;
64597;SDS011;51004;54.692;9.332;2023-08-12T00:14:02;7.13;;;5.38;;
64597;SDS011;51004;54.692;9.332;2023-08-12T00:16:28;5.55;;;5.00;;
64597;SDS011;51004;54.692;9.332;2023-08-12T00:18:55;7.40;;;6.20;;
64597;SDS011;51004;54.692;9.332;2023-08-12T00:21:20;7.65;;;6.45;;
64597;SDS011;51004;54.692;9.332;2023-08-12T00:23:47;7.93;;;6.55;;
64597;SDS011;51004;54.692;9.332;2023-08-12T00:26:14;7.80;;;7.03;;
64597;SDS011;51004;54.692;9.332;2023-08-12T00:28:40;8.07;;;7.28;;
64597;SDS011;51004;54.692;9.332;2023-08-12T00:31:06;8.23;;;7.43;;
64597;SDS011;51004;54.692;9.332;2023-08-12T00:33:32;8.50;;;7.68;;
64597;SDS011;51004;54.692;9.332;2023-08-12T00:35:58;8.50;;;7.25;;
64597;SDS011;51004;54.692;9.332;2023-08-12T00:38:24;8.75;;;7.38;;
64597;SDS011;51004;54.692;9.332;2023-08-12T00:40:50;8.93;;;7.75;;
64597;SDS011;51004;54.692;9.332;2023-08-12T00:43:16;11.77;;;8.18;;
64597;SDS011;51004;54.692;9.332;2023-08-12T00:45:42;8.13;;;7.32;;
64597;SDS011;51004;54.692;9.332;2023-08-12T00:48:08;9.00;;;8.05;;
64597;SDS011;51004;54.692;9.332;2023-08-12T00:50:37;9.68;;;8.63;;
64597;SDS011;51004;54.692;9.332;2023-08-12T00:53:05;8.75;;;7.82;;
64597;SDS011;51004;54.692;9.332;2023-08-12T00:55:31;9.45;;;8.55;;
64597;SDS011;51004;54.692;9.332;2023-08-12T00:57:57;9.65;;;8.32;;
64597;SDS011;51004;54.692;9.332;2023-08-12T01:00:24;9.23;;;8.32;;
64597;SDS011;51004;54.692;9.332;2023-08-12T01:02:50;10.10;;;8.05;;
64597;SDS011;51004;54.692;9.332;2023-08-12T01:05:17;10.38;;;8.73;;
64597;SDS011;51004;54.692;9.332;2023-08-12T01:07:43;9.48;;;8.45;;
64597;SDS011;51004;54.692;9.332;2023-08-12T01:10:11;9.32;;;8.40;;
64597;SDS011;51004;54.692;9.332;2023-08-12T01:12:41;11.98;;;8.38;;
64597;SDS011;51004;54.692;9.332;2023-08-12T01:15:11;9.27;;;8.27;;
64597;SDS011;51004;54.692;9.332;2023-08-12T01:17:41;9.35;;;8.55;;
64597;SDS011;51004;54.692;9.332;2023-08-12T01:20:07;9.18;;;8.27;;
64597;SDS011;51004;54.692;9.332;2023-08-12T01:22:36;10.85;;;8.50;;
64597;SDS011;51004;54.692;9.332;2023-08-12T01:25:04;10.70;;;8.88;;
64597;SDS011;51004;54.692;9.332;2023-08-12T01:27:30;10.98;;;9.85;;
64597;SDS011;51004;54.692;9.332;2023-08-12T01:29:56;10.13;;;9.07;;
64597;SDS011;51004;54.692;9.332;2023-08-12T01:34:58;9.60;;;8.70;;
64597;SDS011;51004;54.692;9.332;2023-08-12T01:37:32;10.05;;;9.05;;
64597;SDS011;51004;54.692;9.332;2023-08-12T01:42:25;10.43;;;9.35;;
64597;SDS011;51004;54.692;9.332;2023-08-12T01:44:51;12.25;;;10.77;;
64597;SDS011;51004;54.692;9.332;2023-08-12T01:47:17;10.30;;;9.38;;
64597;SDS011;51004;54.692;9.332;2023-08-12T01:49:43;11.45;;;10.25;;
64597;SDS011;51004;54.692;9.332;2023-08-12T01:52:09;11.70;;;10.35;;
64597;SDS011;51004;54.692;9.332;2023-08-12T01:54:35;11.35;;;10.25;;
64597;SDS011;51004;54.692;9.332;2023-08-12T01:57:02;11.52;;;9.57;;
64597;SDS011;51004;54.692;9.332;2023-08-12T01:59:30;10.13;;;8.98;;
64597;SDS011;51004;54.692;9.332;2023-08-12T02:01:56;10.77;;;9.88;;
64597;SDS011;51004;54.692;9.332;2023-08-12T02:04:22;10.43;;;9.48;;
64597;SDS011;51004;54.692;9.332;2023-08-12T02:06:48;9.73;;;8.73;;
64597;SDS011;51004;54.692;9.332;2023-08-12T02:09:15;11.63;;;10.38;;
64597;SDS011;51004;54.692;9.332;2023-08-12T02:11:41;11.27;;;10.27;;
64597;SDS011;51004;54.692;9.332;2023-08-12T02:14:06;12.18;;;10.98;;
64597;SDS011;51004;54.692;9.332;2023-08-12T02:16:32;12.18;;;11.00;;
64597;SDS011;51004;54.692;9.332;2023-08-12T02:18:58;12.55;;;11.27;;
64597;SDS011;51004;54.692;9.332;2023-08-12T02:21:24;11.57;;;10.23;;
64597;SDS011;51004;54.692;9.332;2023-08-12T02:23:50;11.98;;;10.93;;
64597;SDS011;51004;54.692;9.332;2023-08-12T02:26:16;12.27;;;10.95;;
64597;SDS011;51004;54.692;9.332;2023-08-12T02:28:42;13.30;;;11.52;;
64597;SDS011;51004;54.692;9.332;2023-08-12T02:31:08;13.65;;;11.70;;
64597;SDS011;51004;54.692;9.332;2023-08-12T02:33:34;12.15;;;10.88;;
64597;SDS011;51004;54.692;9.332;2023-08-12T02:36:00;12.85;;;11.65;;
64597;SDS011;51004;54.692;9.332;2023-08-12T02:38:26;11.50;;;10.30;;
64597;SDS011;51004;54.692;9.332;2023-08-12T02:40:52;14.93;;;13.43;;
64597;SDS011;51004;54.692;9.332;2023-08-12T02:43:18;12.73;;;11.45;;
64597;SDS011;51004;54.692;9.332;2023-08-12T02:45:44;12.90;;;11.60;;
64597;SDS011;51004;54.692;9.332;2023-08-12T02:48:10;12.40;;;11.20;;
64597;SDS011;51004;54.692;9.332;2023-08-12T02:50:36;14.57;;;13.10;;
64597;SDS011;51004;54.692;9.332;2023-08-12T02:53:03;14.57;;;13.07;;
64597;SDS011;51004;54.692;9.332;2023-08-12T02:55:28;17.52;;;14.52;;
64597;SDS011;51004;54.692;9.332;2023-08-12T02:57:56;15.43;;;13.95;;
64597;SDS011;51004;54.692;9.332;2023-08-12T03:00:22;16.13;;;13.13;;
64597;SDS011;51004;54.692;9.332;2023-08-12T03:02:48;15.13;;;13.25;;
64597;SDS011;51004;54.692;9.332;2023-08-12T03:05:14;14.73;;;13.32;;
64597;SDS011;51004;54.692;9.332;2023-08-12T03:07:40;16.17;;;13.70;;
64597;SDS011;51004;54.692;9.332;2023-08-12T03:10:06;15.00;;;13.45;;
64597;SDS011;51004;54.692;9.332;2023-08-12T03:12:32;16.50;;;13.40;;
64597;SDS011;51004;54.692;9.332;2023-08-12T03:14:58;14.80;;;13.20;;
64597;SDS011;51004;54.692;9.332;2023-08-12T03:17:24;16.00;;;13.45;;
64597;SDS011;51004;54.692;9.332;2023-08-12T03:19:50;14.07;;;12.57;;
64597;SDS011;51004;54.692;9.332;2023-08-12T03:22:19;14.70;;;13.02;;
64597;SDS011;51004;54.692;9.332;2023-08-12T03:24:45;15.02;;;13.48;;
64597;SDS011;51004;54.692;9.332;2023-08-12T03:27:11;15.55;;;14.00;;
64597;SDS011;51004;54.692;9.332;2023-08-12T03:29:37;15.98;;;14.32;;
64597;SDS011;51004;54.692;9.332;2023-08-12T03:32:03;15.10;;;13.30;;
64597;SDS011;51004;54.692;9.332;2023-08-12T03:34:29;15.70;;;14.07;;
64597;SDS011;51004;54.692;9.332;2023-08-12T03:36:55;17.25;;;15.55;;
64597;SDS011;51004;54.692;9.332;2023-08-12T03:39:21;16.50;;;14.90;;
64597;SDS011;51004;54.692;9.332;2023-08-12T03:41:47;21.10;;;15.65;;
64597;SDS011;51004;54.692;9.332;2023-08-12T03:44:15;17.67;;;15.88;;
64597;SDS011;51004;54.692;9.332;2023-08-12T03:46:41;17.35;;;15.55;;
64597;SDS011;51004;54.692;9.332;2023-08-12T03:49:07;17.00;;;15.30;;
64597;SDS011;51004;54.692;9.332;2023-08-12T03:51:33;18.40;;;16.60;;
64597;SDS011;51004;54.692;9.332;2023-08-12T03:53:59;18.38;;;16.45;;
64597;SDS011;51004;54.692;9.332;2023-08-12T03:56:25;19.45;;;17.45;;
64597;SDS011;51004;54.692;9.332;2023-08-12T03:58:51;19.38;;;17.38;;
64597;SDS011;51004;54.692;9.332;2023-08-12T04:01:17;18.42;;;16.55;;
64597;SDS011;51004;54.692;9.332;2023-08-12T04:03:43;19.15;;;17.25;;
64597;SDS011;51004;54.692;9.332;2023-08-12T04:06:09;19.00;;;17.08;;
64597;SDS011;51004;54.692;9.332;2023-08-12T04:08:35;19.20;;;17.35;;
64597;SDS011;51004;54.692;9.332;2023-08-12T04:11:01;20.17;;;18.05;;
64597;SDS011;51004;54.692;9.332;2023-08-12T04:13:27;19.67;;;17.83;;
64597;SDS011;51004;54.692;9.332;2023-08-12T04:15:53;19.45;;;17.35;;
64597;SDS011;51004;54.692;9.332;2023-08-12T04:18:19;20.92;;;18.73;;
64597;SDS011;51004;54.692;9.332;2023-08-12T04:20:45;21.20;;;19.20;;
64597;SDS011;51004;54.692;9.332;2023-08-12T04:23:14;20.88;;;18.67;;
64597;SDS011;51004;54.692;9.332;2023-08-12T04:25:42;23.13;;;20.83;;
64597;SDS011;51004;54.692;9.332;2023-08-12T04:28:09;22.73;;;20.20;;
64597;SDS011;51004;54.692;9.332;2023-08-12T04:30:35;24.95;;;22.13;;
64597;SDS011;51004;54.692;9.332;2023-08-12T04:33:01;23.73;;;21.30;;
64597;SDS011;51004;54.692;9.332;2023-08-12T04:35:27;23.88;;;21.52;;
64597;SDS011;51004;54.692;9.332;2023-08-12T04:37:53;24.70;;;22.25;;
64597;SDS011;51004;54.692;9.332;2023-08-12T04:40:19;23.73;;;21.45;;
64597;SDS011;51004;54.692;9.332;2023-08-12T04:42:45;23.92;;;21.42;;
64597;SDS011;51004;54.692;9.332;2023-08-12T04:45:11;23.73;;;21.42;;
64597;SDS011;51004;54.692;9.332;2023-08-12T04:47:37;23.73;;;21.45;;
64597;SDS011;51004;54.692;9.332;2023-08-12T04:50:03;25.50;;;22.50;;
64597;SDS011;51004;54.692;9.332;2023-08-12T04:52:29;26.30;;;23.63;;
64597;SDS011;51004;54.692;9.332;2023-08-12T04:54:55;24.17;;;21.67;;
64597;SDS011;51004;54.692;9.332;2023-08-12T04:57:21;22.98;;;20.55;;
64597;SDS011;51004;54.692;9.332;2023-08-12T04:59:47;24.05;;;21.60;;
64597;SDS011;51004;54.692;9.332;2023-08-12T05:02:13;24.10;;;21.70;;
64597;SDS011;51004;54.692;9.332;2023-08-12T05:04:43;24.13;;;21.80;;
64597;SDS011;51004;54.692;9.332;2023-08-12T05:07:09;24.52;;;21.92;;
64597;SDS011;51004;54.692;9.332;2023-08-12T05:09:35;25.77;;;22.98;;
64597;SDS011;51004;54.692;9.332;2023-08-12T05:12:01;24.02;;;21.42;;
64597;SDS011;51004;54.692;9.332;2023-08-12T05:14:27;23.60;;;20.88;;
64597;SDS011;51004;54.692;9.332;2023-08-12T05:16:53;23.35;;;20.98;;
64597;SDS011;51004;54.692;9.332;2023-08-12T05:19:19;23.42;;;21.17;;
64597;SDS011;51004;54.692;9.332;2023-08-12T05:21:45;23.40;;;21.00;;
64597;SDS011;51004;54.692;9.332;2023-08-12T05:24:11;23.73;;;21.42;;
64597;SDS011;51004;54.692;9.332;2023-08-12T05:26:37;22.50;;;20.27;;
64597;SDS011;51004;54.692;9.332;2023-08-12T05:29:03;22.92;;;20.42;;
64597;SDS011;51004;54.692;9.332;2023-08-12T05:31:29;24.33;;;21.10;;
64597;SDS011;51004;54.692;9.332;2023-08-12T05:34:02;22.35;;;20.02;;
64597;SDS011;51004;54.692;9.332;2023-08-12T05:36:29;25.13;;;20.63;;
64597;SDS011;51004;54.692;9.332;2023-08-12T05:38:55;21.05;;;18.83;;
64597;SDS011;51004;54.692;9.332;2023-08-12T05:41:21;23.58;;;20.00;;
64597;SDS011;51004;54.692;9.332;2023-08-12T05:43:47;24.02;;;19.15;;
64597;SDS011;51004;54.692;9.332;2023-08-12T05:46:14;22.05;;;19.85;;
64597;SDS011;51004;54.692;9.332;2023-08-12T05:48:41;23.42;;;19.90;;
64597;SDS011;51004;54.692;9.332;2023-08-12T05:51:07;22.27;;;19.27;;
64597;SDS011;51004;54.692;9.332;2023-08-12T05:53:33;21.35;;;19.15;;
64597;SDS011;51004;54.692;9.332;2023-08-12T05:55:59;22.13;;;19.73;;
64597;SDS011;51004;54.692;9.332;2023-08-12T05:58:25;27.05;;;20.20;;
64597;SDS011;51004;54.692;9.332;2023-08-12T06:00:51;24.35;;;20.38;;
64597;SDS011;51004;54.692;9.332;2023-08-12T06:03:17;21.70;;;19.30;;
64597;SDS011;51004;54.692;9.332;2023-08-12T06:05:45;22.55;;;19.10;;
64597;SDS011;51004;54.692;9.332;2023-08-12T06:08:12;24.23;;;18.85;;
64597;SDS011;51004;54.692;9.332;2023-08-12T06:10:38;22.75;;;20.40;;
64597;SDS011;51004;54.692;9.332;2023-08-12T06:13:04;22.17;;;19.80;;
64597;SDS011;51004;54.692;9.332;2023-08-12T06:15:30;25.80;;;19.25;;
64597;SDS011;51004;54.692;9.332;2023-08-12T06:18:00;22.88;;;19.60;;
64597;SDS011;51004;54.692;9.332;2023-08-12T06:20:29;23.80;;;20.10;;
64597;SDS011;51004;54.692;9.332;2023-08-12T07:49:33;26.77;;;18.58;;
64597;SDS011;51004;54.692;9.332;2023-08-12T07:51:59;28.83;;;18.73;;
64597;SDS011;51004;54.692;9.332;2023-08-12T07:54:25;25.65;;;18.25;;
64597;SDS011;51004;54.692;9.332;2023-08-12T07:56:51;26.33;;;18.27;;
64597;SDS011;51004;54.692;9.332;2023-08-12T07:59:19;22.58;;;17.02;;
64597;SDS011;51004;54.692;9.332;2023-08-12T08:01:44;21.83;;;16.38;;
64597;SDS011;51004;54.692;9.332;2023-08-12T08:04:11;24.27;;;17.48;;
64597;SDS011;51004;54.692;9.332;2023-08-12T08:06:37;23.17;;;17.83;;
64597;SDS011;51004;54.692;9.332;2023-08-12T08:09:03;23.83;;;16.42;;
64597;SDS011;51004;54.692;9.332;2023-08-12T08:11:29;24.65;;;16.88;;
64597;SDS011;51004;54.692;9.332;2023-08-12T08:13:56;24.00;;;16.60;;
64597;SDS011;51004;54.692;9.332;2023-08-12T08:16:22;23.95;;;15.40;;
64597;SDS011;51004;54.692;9.332;2023-08-12T08:18:48;15.95;;;13.43;;
64597;SDS011;51004;54.692;9.332;2023-08-12T08:21:14;18.80;;;13.05;;
64597;SDS011;51004;54.692;9.332;2023-08-12T08:23:40;18.90;;;12.82;;
64597;SDS011;51004;54.692;9.332;2023-08-12T08:26:07;18.90;;;11.88;;
64597;SDS011;51004;54.692;9.332;2023-08-12T08:28:33;19.05;;;13.13;;
64597;SDS011;51004;54.692;9.332;2023-08-12T08:30:59;17.60;;;12.80;;
64597;SDS011;51004;54.692;9.332;2023-08-12T08:33:25;20.58;;;11.43;;
64597;SDS011;51004;54.692;9.332;2023-08-12T08:35:51;16.48;;;11.52;;
64597;SDS011;51004;54.692;9.332;2023-08-12T08:38:17;15.65;;;11.52;;
64597;SDS011;51004;54.692;9.332;2023-08-12T08:40:43;14.75;;;10.60;;
64597;SDS011;51004;54.692;9.332;2023-08-12T08:43:09;13.43;;;9.70;;
64597;SDS011;51004;54.692;9.332;2023-08-12T08:45:36;16.80;;;11.52;;
64597;SDS011;51004;54.692;9.332;2023-08-12T08:48:02;12.60;;;9.85;;
64597;SDS011;51004;54.692;9.332;2023-08-12T08:50:29;14.63;;;9.98;;
64597;SDS011;51004;54.692;9.332;2023-08-12T08:52:55;14.93;;;9.45;;
64597;SDS011;51004;54.692;9.332;2023-08-12T08:55:22;17.98;;;10.07;;
64597;SDS011;51004;54.692;9.332;2023-08-12T08:57:48;14.85;;;8.77;;
64597;SDS011;51004;54.692;9.332;2023-08-12T09:00:15;12.65;;;7.78;;
64597;SDS011;51004;54.692;9.332;2023-08-12T09:02:41;15.13;;;9.18;;
64597;SDS011;51004;54.692;9.332;2023-08-12T09:05:07;16.08;;;9.43;;
64597;SDS011;51004;54.692;9.332;2023-08-12T09:07:34;11.45;;;8.13;;
64597;SDS011;51004;54.692;9.332;2023-08-12T09:10:00;15.52;;;7.57;;
64597;SDS011;51004;54.692;9.332;2023-08-12T09:12:26;11.95;;;7.55;;
64597;SDS011;51004;54.692;9.332;2023-08-12T09:14:52;11.48;;;7.60;;
64597;SDS011;51004;54.692;9.332;2023-08-12T09:17:18;15.93;;;10.15;;
64597;SDS011;51004;54.692;9.332;2023-08-12T09:19:44;13.25;;;7.35;;
64597;SDS011;51004;54.692;9.332;2023-08-12T09:22:10;15.10;;;6.47;;
64597;SDS011;51004;54.692;9.332;2023-08-12T09:24:38;16.92;;;8.07;;
64597;SDS011;51004;54.692;9.332;2023-08-12T09:27:04;11.43;;;5.88;;
64597;SDS011;51004;54.692;9.332;2023-08-12T09:29:30;12.82;;;7.72;;
64597;SDS011;51004;54.692;9.332;2023-08-12T09:32:06;13.00;;;6.80;;
64597;SDS011;51004;54.692;9.332;2023-08-12T09:34:35;12.38;;;6.78;;
64597;SDS011;51004;54.692;9.332;2023-08-12T09:37:01;9.70;;;7.00;;
64597;SDS011;51004;54.692;9.332;2023-08-12T09:39:28;13.15;;;5.82;;
64597;SDS011;51004;54.692;9.332;2023-08-12T09:41:54;15.10;;;6.32;;
64597;SDS011;51004;54.692;9.332;2023-08-12T09:44:21;9.68;;;6.38;;
64597;SDS011;51004;54.692;9.332;2023-08-12T09:46:47;11.35;;;5.50;;
64597;SDS011;51004;54.692;9.332;2023-08-12T09:49:13;14.63;;;6.72;;
64597;SDS011;51004;54.692;9.332;2023-08-12T09:51:39;11.70;;;6.15;;
64597;SDS011;51004;54.692;9.332;2023-08-12T09:54:08;9.82;;;5.82;;
64597;SDS011;51004;54.692;9.332;2023-08-12T09:56:36;8.80;;;5.95;;
64597;SDS011;51004;54.692;9.332;2023-08-12T09:59:02;10.60;;;5.30;;
64597;SDS011;51004;54.692;9.332;2023-08-12T10:01:35;8.32;;;5.30;;
64597;SDS011;51004;54.692;9.332;2023-08-12T10:04:02;12.02;;;5.75;;
64597;SDS011;51004;54.692;9.332;2023-08-12T10:06:31;8.95;;;5.65;;
64597;SDS011;51004;54.692;9.332;2023-08-12T10:08:58;11.48;;;5.40;;
64597;SDS011;51004;54.692;9.332;2023-08-12T10:11:24;9.32;;;5.22;;
64597;SDS011;51004;54.692;9.332;2023-08-12T10:13:50;17.50;;;6.43;;
64597;SDS011;51004;54.692;9.332;2023-08-12T10:16:16;10.32;;;5.78;;
64597;SDS011;51004;54.692;9.332;2023-08-12T10:18:42;11.32;;;5.13;;
64597;SDS011;51004;54.692;9.332;2023-08-12T10:21:10;11.45;;;5.63;;
64597;SDS011;51004;54.692;9.332;2023-08-12T10:23:36;8.05;;;4.85;;
64597;SDS011;51004;54.692;9.332;2023-08-12T10:26:02;9.40;;;5.47;;
64597;SDS011;51004;54.692;9.332;2023-08-12T10:28:30;10.77;;;6.30;;
64597;SDS011;51004;54.692;9.332;2023-08-12T10:31:01;9.05;;;5.78;;
64597;SDS011;51004;54.692;9.332;2023-08-12T10:33:27;13.90;;;5.72;;
64597;SDS011;51004;54.692;9.332;2023-08-12T10:35:55;10.77;;;6.97;;
64597;SDS011;51004;54.692;9.332;2023-08-12T10:38:21;11.65;;;5.80;;
64597;SDS011;51004;54.692;9.332;2023-08-12T10:40:51;11.88;;;5.57;;
64597;SDS011;51004;54.692;9.332;2023-08-12T10:43:18;13.27;;;6.47;;
64597;SDS011;51004;54.692;9.332;2023-08-12T10:45:48;16.10;;;7.47;;
64597;SDS011;51004;54.692;9.332;2023-08-12T10:48:22;10.93;;;6.60;;
64597;SDS011;51004;54.692;9.332;2023-08-12T10:50:48;10.07;;;5.50;;
64597;SDS011;51004;54.692;9.332;2023-08-12T10:53:22;10.68;;;5.28;;
64597;SDS011;51004;54.692;9.332;2023-08-12T10:55:54;13.23;;;6.18;;
64597;SDS011;51004;54.692;9.332;2023-08-12T10:58:34;9.10;;;5.45;;
64597;SDS011;51004;54.692;9.332;2023-08-12T11:01:01;9.00;;;5.45;;
64597;SDS011;51004;54.692;9.332;2023-08-12T11:03:31;9.27;;;5.53;;
64597;SDS011;51004;54.692;9.332;2023-08-12T11:06:01;9.43;;;4.95;;
64597;SDS011;51004;54.692;9.332;2023-08-12T11:08:28;9.57;;;4.65;;
64597;SDS011;51004;54.692;9.332;2023-08-12T11:10:54;12.27;;;5.22;;
64597;SDS011;51004;54.692;9.332;2023-08-12T11:13:21;11.05;;;5.75;;
64597;SDS011;51004;54.692;9.332;2023-08-12T11:15:48;10.40;;;5.85;;
64597;SDS011;51004;54.692;9.332;2023-08-12T11:18:19;8.73;;;5.00;;
64597;SDS011;51004;54.692;9.332;2023-08-12T11:20:46;9.00;;;4.90;;
64597;SDS011;51004;54.692;9.332;2023-08-12T11:23:13;8.77;;;4.68;;
64597;SDS011;51004;54.692;9.332;2023-08-12T11:25:39;8.05;;;5.03;;
64597;SDS011;51004;54.692;9.332;2023-08-12T11:28:06;7.82;;;4.22;;
64597;SDS011;51004;54.692;9.332;2023-08-12T11:30:32;11.57;;;4.90;;
64597;SDS011;51004;54.692;9.332;2023-08-12T11:32:58;8.93;;;4.63;;
64597;SDS011;51004;54.692;9.332;2023-08-12T11:35:24;8.23;;;4.80;;
64597;SDS011;51004;54.692;9.332;2023-08-12T11:37:51;11.45;;;4.90;;
64597;SDS011;51004;54.692;9.332;2023-08-12T11:40:21;7.65;;;4.95;;
64597;SDS011;51004;54.692;9.332;2023-08-12T11:42:49;10.32;;;5.30;;
64597;SDS011;51004;54.692;9.332;2023-08-12T11:45:15;6.15;;;4.93;;
64597;SDS011;51004;54.692;9.332;2023-08-12T11:47:42;7.85;;;5.22;;
64597;SDS011;51004;54.692;9.332;2023-08-12T11:50:12;6.03;;;4.88;;
64597;SDS011;51004;54.692;9.332;2023-08-12T11:52:38;8.38;;;4.35;;
64597;SDS011;51004;54.692;9.332;2023-08-12T11:55:04;6.07;;;4.00;;
64597;SDS011;51004;54.692;9.332;2023-08-12T11:57:31;9.45;;;4.43;;
64597;SDS011;51004;54.692;9.332;2023-08-12T12:00:03;9.25;;;4.50;;
64597;SDS011;51004;54.692;9.332;2023-08-12T12:02:35;8.13;;;4.70;;
64597;SDS011;51004;54.692;9.332;2023-08-12T12:05:05;5.70;;;4.38;;
64597;SDS011;51004;54.692;9.332;2023-08-12T12:07:31;10.85;;;4.75;;
64597;SDS011;51004;54.692;9.332;2023-08-12T12:09:57;5.65;;;3.90;;
64597;SDS011;51004;54.692;9.332;2023-08-12T12:12:23;5.57;;;3.92;;
64597;SDS011;51004;54.692;9.332;2023-08-12T12:14:52;7.00;;;4.07;;
64597;SDS011;51004;54.692;9.332;2023-08-12T12:17:22;7.78;;;4.03;;
64597;SDS011;51004;54.692;9.332;2023-08-12T12:19:58;8.05;;;4.28;;
64597;SDS011;51004;54.692;9.332;2023-08-12T12:22:31;8.18;;;4.05;;
64597;SDS011;51004;54.692;9.332;2023-08-12T12:25:00;10.70;;;4.13;;
64597;SDS011;51004;54.692;9.332;2023-08-12T12:27:26;9.60;;;4.00;;
64597;SDS011;51004;54.692;9.332;2023-08-12T12:29:53;8.18;;;5.00;;
64597;SDS011;51004;54.692;9.332;2023-08-12T12:32:19;9.13;;;4.88;;
64597;SDS011;51004;54.692;9.332;2023-08-12T12:34:46;7.03;;;4.22;;
64597;SDS011;51004;54.692;9.332;2023-08-12T12:37:12;9.82;;;4.40;;
64597;SDS011;51004;54.692;9.332;2023-08-12T12:39:38;8.50;;;4.28;;
64597;SDS011;51004;54.692;9.332;2023-08-12T12:42:11;7.70;;;4.97;;
64597;SDS011;51004;54.692;9.332;2023-08-12T12:44:37;7.43;;;5.80;;
64597;SDS011;51004;54.692;9.332;2023-08-12T12:47:03;9.90;;;5.72;;
64597;SDS011;51004;54.692;9.332;2023-08-12T12:49:29;9.60;;;6.13;;
64597;SDS011;51004;54.692;9.332;2023-08-12T12:51:55;10.18;;;6.88;;
64597;SDS011;51004;54.692;9.332;2023-08-12T12:54:21;10.07;;;6.30;;
64597;SDS011;51004;54.692;9.332;2023-08-12T12:56:47;14.77;;;7.32;;
64597;SDS011;51004;54.692;9.332;2023-08-12T12:59:13;8.85;;;6.80;;
64597;SDS011;51004;54.692;9.332;2023-08-12T13:01:40;11.10;;;7.25;;
64597;SDS011;51004;54.692;9.332;2023-08-12T13:04:06;10.90;;;7.35;;
64597;SDS011;51004;54.692;9.332;2023-08-12T13:06:33;13.35;;;8.70;;
64597;SDS011;51004;54.692;9.332;2023-08-12T13:08:59;12.35;;;7.57;;
64597;SDS011;51004;54.692;9.332;2023-08-12T13:11:25;14.07;;;9.32;;
64597;SDS011;51004;54.692;9.332;2023-08-12T13:13:52;13.38;;;9.07;;
64597;SDS011;51004;54.692;9.332;2023-08-12T13:16:19;13.20;;;8.90;;
64597;SDS011;51004;54.692;9.332;2023-08-12T13:18:45;15.52;;;9.73;;
64597;SDS011;51004;54.692;9.332;2023-08-12T13:21:11;11.55;;;9.68;;
64597;SDS011;51004;54.692;9.332;2023-08-12T13:23:37;17.38;;;12.68;;
64597;SDS011;51004;54.692;9.332;2023-08-12T13:26:07;11.02;;;7.72;;
64597;SDS011;51004;54.692;9.332;2023-08-12T13:28:33;9.38;;;7.07;;
64597;SDS011;51004;54.692;9.332;2023-08-12T13:30:59;9.13;;;5.07;;
64597;SDS011;51004;54.692;9.332;2023-08-12T13:33:25;14.07;;;4.75;;
64597;SDS011;51004;54.692;9.332;2023-08-12T13:35:51;6.82;;;4.20;;
64597;SDS011;51004;54.692;9.332;2023-08-12T13:38:17;9.40;;;4.43;;
64597;SDS011;51004;54.692;9.332;2023-08-12T13:40:43;11.85;;;7.13;;
64597;SDS011;51004;54.692;9.332;2023-08-12T13:43:09;12.13;;;7.20;;
64597;SDS011;51004;54.692;9.332;2023-08-12T13:45:35;10.15;;;7.70;;
64597;SDS011;51004;54.692;9.332;2023-08-12T13:48:01;15.18;;;7.47;;
64597;SDS011;51004;54.692;9.332;2023-08-12T13:50:27;8.85;;;7.38;;
64597;SDS011;51004;54.692;9.332;2023-08-12T13:52:53;9.73;;;5.90;;
64597;SDS011;51004;54.692;9.332;2023-08-12T13:55:19;7.60;;;5.25;;
64597;SDS011;51004;54.692;9.332;2023-08-12T13:57:45;8.70;;;5.57;;
64597;SDS011;51004;54.692;9.332;2023-08-12T14:00:11;7.10;;;4.60;;
64597;SDS011;51004;54.692;9.332;2023-08-12T14:02:41;9.40;;;4.90;;
64597;SDS011;51004;54.692;9.332;2023-08-12T14:05:07;8.82;;;4.57;;
64597;SDS011;51004;54.692;9.332;2023-08-12T14:07:35;7.88;;;4.40;;
64597;SDS011;51004;54.692;9.332;2023-08-12T14:10:01;6.03;;;3.78;;
64597;SDS011;51004;54.692;9.332;2023-08-12T14:12:27;5.18;;;3.28;;
64597;SDS011;51004;54.692;9.332;2023-08-12T14:14:53;5.93;;;3.83;;
64597;SDS011;51004;54.692;9.332;2023-08-12T14:17:19;7.00;;;3.88;;
64597;SDS011;51004;54.692;9.332;2023-08-12T14:19:48;9.10;;;3.72;;
64597;SDS011;51004;54.692;9.332;2023-08-12T14:22:15;7.30;;;4.28;;
64597;SDS011;51004;54.692;9.332;2023-08-12T14:24:41;6.88;;;3.70;;
64597;SDS011;51004;54.692;9.332;2023-08-12T14:27:08;9.13;;;3.85;;
64597;SDS011;51004;54.692;9.332;2023-08-12T14:29:35;6.78;;;3.88;;
64597;SDS011;51004;54.692;9.332;2023-08-12T14:32:04;7.88;;;3.78;;
64597;SDS011;51004;54.692;9.332;2023-08-12T14:34:30;8.55;;;4.10;;
64597;SDS011;51004;54.692;9.332;2023-08-12T14:36:56;7.18;;;3.65;;
64597;SDS011;51004;54.692;9.332;2023-08-12T14:39:22;7.18;;;3.75;;
64597;SDS011;51004;54.692;9.332;2023-08-12T14:41:48;5.63;;;3.70;;
64597;SDS011;51004;54.692;9.332;2023-08-12T14:44:14;10.23;;;3.55;;
64597;SDS011;51004;54.692;9.332;2023-08-12T14:46:40;5.20;;;3.20;;
64597;SDS011;51004;54.692;9.332;2023-08-12T14:49:06;5.43;;;2.90;;
64597;SDS011;51004;54.692;9.332;2023-08-12T14:51:32;4.40;;;3.42;;
64597;SDS011;51004;54.692;9.332;2023-08-12T14:53:59;4.50;;;2.45;;
64597;SDS011;51004;54.692;9.332;2023-08-12T14:56:25;4.90;;;2.47;;
64597;SDS011;51004;54.692;9.332;2023-08-12T14:58:51;4.93;;;2.50;;
64597;SDS011;51004;54.692;9.332;2023-08-12T15:01:17;9.88;;;3.40;;
64597;SDS011;51004;54.692;9.332;2023-08-12T15:03:43;4.43;;;2.60;;
64597;SDS011;51004;54.692;9.332;2023-08-12T15:06:09;5.65;;;2.50;;
64597;SDS011;51004;54.692;9.332;2023-08-12T15:08:35;4.93;;;2.20;;
64597;SDS011;51004;54.692;9.332;2023-08-12T15:11:01;3.58;;;1.70;;
64597;SDS011;51004;54.692;9.332;2023-08-12T15:13:27;4.13;;;2.03;;
64597;SDS011;51004;54.692;9.332;2023-08-12T15:15:54;6.00;;;2.38;;
64597;SDS011;51004;54.692;9.332;2023-08-12T15:18:20;2.83;;;2.00;;
64597;SDS011;51004;54.692;9.332;2023-08-12T15:20:46;4.05;;;1.90;;
64597;SDS011;51004;54.692;9.332;2023-08-12T15:23:12;3.75;;;2.10;;
64597;SDS011;51004;54.692;9.332;2023-08-12T15:25:38;4.47;;;2.50;;
64597;SDS011;51004;54.692;9.332;2023-08-12T15:28:04;3.45;;;2.00;;
64597;SDS011;51004;54.692;9.332;2023-08-12T15:30:30;3.38;;;1.73;;
64597;SDS011;51004;54.692;9.332;2023-08-12T15:32:57;4.13;;;2.17;;
64597;SDS011;51004;54.692;9.332;2023-08-12T15:35:22;5.57;;;2.10;;
64597;SDS011;51004;54.692;9.332;2023-08-12T15:37:48;4.20;;;2.28;;
64597;SDS011;51004;54.692;9.332;2023-08-12T15:40:14;4.57;;;2.33;;
64597;SDS011;51004;54.692;9.332;2023-08-12T15:42:41;2.72;;;2.08;;
64597;SDS011;51004;54.692;9.332;2023-08-12T15:45:07;4.28;;;2.08;;
64597;SDS011;51004;54.692;9.332;2023-08-12T15:47:33;4.13;;;2.15;;
64597;SDS011;51004;54.692;9.332;2023-08-12T15:50:03;5.65;;;2.60;;
64597;SDS011;51004;54.692;9.332;2023-08-12T15:52:29;8.25;;;2.42;;
64597;SDS011;51004;54.692;9.332;2023-08-12T15:54:57;4.22;;;2.60;;
64597;SDS011;51004;54.692;9.332;2023-08-12T15:57:23;2.95;;;2.38;;
64597;SDS011;51004;54.692;9.332;2023-08-12T15:59:50;4.40;;;2.28;;
64597;SDS011;51004;54.692;9.332;2023-08-12T16:02:16;6.43;;;2.40;;
64597;SDS011;51004;54.692;9.332;2023-08-12T16:07:14;6.13;;;2.10;;